Time;durP1;ratioP1;P1;durP2;ratioP2;P2;SDS_P1;SDS_P2;PMS_P1;PMS_P2;Temp;Humidity;BMP_temperature;BMP_pressure;BME280_temperature;BME280_humidity;BME280_pressure;Samples;Min_cycle;Max_cycle;Signal;HPM_P1;HPM_P2
2022/09/13 00:00:55;;;;;;;11.73;9.70;;;;;;;16.80;76.48;98918.13;5054370;28;20221;-81
2022/09/13 00:03:21;;;;;;;10.70;8.97;;;;;;;16.56;76.95;98888.06;5054094;28;20621;-81
2022/09/13 00:05:47;;;;;;;9.93;8.43;;;;;;;16.71;76.65;98900.13;5054622;28;20166;-81
2022/09/13 00:08:12;;;;;;;11.33;9.47;;;;;;;16.46;77.79;98881.94;5053832;28;20629;-81
2022/09/13 00:10:40;;;;;;;12.97;8.93;;;;;;;16.59;77.78;98902.56;5053802;28;20173;-81
2022/09/13 00:13:07;;;;;;;10.23;8.90;;;;;;;16.49;78.24;98896.44;5054387;28;20618;-81
2022/09/13 00:15:33;;;;;;;10.77;9.40;;;;;;;16.40;78.71;98891.19;5053769;28;20181;-81
2022/09/13 00:17:59;;;;;;;13.33;9.60;;;;;;;16.32;78.99;98885.13;5053869;28;20212;-82
2022/09/13 00:20:25;;;;;;;10.70;8.27;;;;;;;16.39;78.91;98899.72;5053960;28;20314;-81
2022/09/13 00:22:50;;;;;;;10.77;9.07;;;;;;;16.19;78.72;98873.06;5053616;28;20169;-82
2022/09/13 00:25:16;;;;;;;11.30;8.70;;;;;;;16.23;77.76;98887.59;5053993;28;20170;-82
2022/09/13 00:27:43;;;;;;;10.50;9.40;;;;;;;16.33;77.51;98885.19;5055076;28;20551;-81
2022/09/13 00:30:09;;;;;;;9.57;8.40;;;;;;;15.56;77.05;98753.97;5053481;28;20227;-82
2022/09/13 00:32:35;;;;;;;11.80;8.60;;;;;;;16.30;76.21;98864.69;5053318;28;20161;-82
2022/09/13 00:35:02;;;;;;;8.53;7.30;;;;;;;16.48;75.68;98889.63;5053220;28;20251;-80
2022/09/13 00:37:27;;;;;;;8.87;7.60;;;;;;;16.55;74.84;98885.47;5052561;28;20161;-80
2022/09/13 00:39:52;;;;;;;10.00;7.77;;;;;;;16.29;74.88;98832.31;5053292;28;20599;-80
2022/09/13 00:42:24;;;;;;;9.47;7.73;;;;;;;16.48;75.05;98870.03;5052314;28;20166;-80
2022/09/13 00:45:01;;;;;;;9.90;7.90;;;;;;;16.71;74.63;98888.22;5053372;28;20166;-80
2022/09/13 00:47:42;;;;;;;7.97;6.63;;;;;;;16.47;74.41;98845.31;5053491;28;20555;-80
2022/09/13 00:50:08;;;;;;;9.23;7.87;;;;;;;16.73;74.29;98889.06;5053456;28;20256;-80
2022/09/13 00:52:35;;;;;;;11.30;7.90;;;;;;;16.73;74.22;98885.69;5053015;28;20192;-80
2022/09/13 00:55:26;;;;;;;8.17;7.30;;;;;;;16.41;74.25;98839.28;5053562;28;20216;-80
2022/09/13 00:57:57;;;;;;;8.50;7.67;;;;;;;16.73;74.19;98894.19;5053063;28;20215;-80
2022/09/13 01:00:23;;;;;;;9.37;8.00;;;;;;;16.54;74.90;98876.94;5053197;28;20185;-80
2022/09/13 01:02:56;;;;;;;8.73;7.83;;;;;;;16.59;75.34;98882.94;5052824;28;20161;-80
2022/09/13 01:05:26;;;;;;;9.77;7.60;;;;;;;16.30;76.12;98848.50;5052314;28;20522;-80
2022/09/13 01:07:53;;;;;;;8.83;7.87;;;;;;;16.59;75.85;98877.84;5052741;28;20622;-79
2022/09/13 01:10:18;;;;;;;7.77;6.87;;;;;;;16.43;75.69;98850.38;5061637;28;20183;-79
2022/09/13 01:12:48;;;;;;;8.27;7.37;;;;;;;16.26;75.94;98828.91;5072436;28;20165;-79
2022/09/13 01:15:14;;;;;;;9.53;7.47;;;;;;;16.43;75.74;98853.78;5072491;28;20610;-79
2022/09/13 01:17:40;;;;;;;8.60;7.70;;;;;;;16.59;76.13;98880.38;5072448;28;20186;-81
2022/09/13 01:20:08;;;;;;;8.80;7.10;;;;;;;16.49;76.14;98865.78;5072457;28;20196;-81
2022/09/13 01:23:07;;;;;;;9.00;7.47;;;;;;;16.60;75.93;98879.56;5072289;28;20678;-81
2022/09/13 01:26:10;;;;;;;8.27;7.27;;;;;;;16.55;75.95;98885.47;5072110;28;20157;-81
2022/09/13 01:29:22;;;;;;;9.10;7.37;;;;;;;16.58;75.38;98876.13;5087641;28;20222;-81
2022/09/13 01:32:19;;;;;;;9.23;7.40;;;;;;;16.48;75.85;98887.06;5027531;28;20720;-81
2022/09/13 01:35:03;;;;;;;10.90;7.67;;;;;;;16.42;76.21;98879.31;5030060;28;20717;-81
2022/09/13 01:37:45;;;;;;;9.33;7.07;;;;;;;16.31;76.72;98863.00;5030499;28;20654;-81
2022/09/13 01:40:31;;;;;;;7.90;7.07;;;;;;;16.43;76.85;98870.81;5018989;28;20305;-81
2022/09/13 01:43:15;;;;;;;8.37;7.37;;;;;;;16.27;77.68;98869.78;5013599;28;20345;-81
2022/09/13 01:45:58;;;;;;;9.77;7.40;;;;;;;16.37;76.73;98871.59;4994571;28;20605;-81
2022/09/13 01:48:35;;;;;;;8.53;7.00;;;;;;;16.25;77.41;98865.47;4996142;28;20622;-80
2022/09/13 01:51:27;;;;;;;11.47;7.47;;;;;;;16.23;77.90;98874.84;5010982;28;20163;-80
2022/09/13 01:54:01;;;;;;;8.13;7.30;;;;;;;16.32;76.98;98862.16;5025391;28;20675;-81
2022/09/13 01:56:33;;;;;;;8.27;7.20;;;;;;;16.32;77.15;98872.38;5029465;28;20280;-80
2022/09/13 01:59:24;;;;;;;9.67;7.27;;;;;;;16.32;76.91;98877.47;5029615;28;20174;-81
2022/09/13 02:02:02;;;;;;;8.57;7.23;;;;;;;16.46;76.59;98875.94;5029716;28;20217;-81
2022/09/13 02:04:35;;;;;;;9.17;7.03;;;;;;;16.36;77.05;98881.81;5030011;28;20174;-81
2022/09/13 02:07:13;;;;;;;8.97;7.10;;;;;;;16.32;76.65;98872.38;5029788;28;20173;-80
2022/09/13 02:09:45;;;;;;;8.93;8.03;;;;;;;16.42;76.56;98866.56;5052293;28;20526;-80
2022/09/13 02:12:18;;;;;;;10.53;8.07;;;;;;;15.42;77.04;98740.13;5051749;28;20157;-80
2022/09/13 02:14:54;;;;;;;11.80;7.60;;;;;;;16.18;77.07;98864.53;5053540;28;20288;-80
2022/09/13 02:17:23;;;;;;;9.57;7.10;;;;;;;15.90;76.50;98817.34;5056076;28;20703;-80
2022/09/13 02:19:51;;;;;;;8.37;7.57;;;;;;;16.26;75.50;98864.66;5055976;28;20177;-80
2022/09/13 02:22:22;;;;;;;8.97;7.27;;;;;;;16.14;75.35;98859.38;5056198;28;20173;-80
2022/09/13 02:24:53;;;;;;;9.23;7.63;;;;;;;16.25;75.01;98868.91;5056002;28;20255;-81
2022/09/13 02:27:23;;;;;;;8.47;7.57;;;;;;;15.75;76.01;98806.09;5055548;28;20540;-81
2022/09/13 02:29:56;;;;;;;9.30;7.80;;;;;;;15.84;76.01;98814.75;5055628;28;20173;-81
2022/09/13 02:32:51;;;;;;;8.53;7.17;;;;;;;16.08;76.21;98867.81;5055827;28;20184;-81
2022/09/13 02:35:35;;;;;;;9.63;7.40;;;;;;;16.00;76.50;98849.00;5017235;28;20283;-81
2022/09/13 02:38:04;;;;;;;9.97;7.83;;;;;;;16.07;76.35;98860.97;5033858;28;20232;-81
2022/09/13 02:40:39;;;;;;;11.30;7.50;;;;;;;15.95;76.24;98860.84;5033891;28;20616;-81
2022/09/13 02:43:12;;;;;;;9.30;7.40;;;;;;;15.19;76.47;98731.31;5033164;28;20165;-81
2022/09/13 02:45:55;;;;;;;8.97;7.80;;;;;;;16.11;76.26;98872.09;5014881;28;20674;-81
2022/09/13 02:48:33;;;;;;;8.10;7.20;;;;;;;15.49;76.56;98797.22;5030214;28;20210;-82
2022/09/13 02:51:06;;;;;;;11.50;7.50;;;;;;;15.77;76.70;98843.56;5034272;28;20218;-81
2022/09/13 02:53:34;;;;;;;8.67;7.73;;;;;;;16.07;75.91;98866.09;5030356;28;20193;-81
2022/09/13 02:56:40;;;;;;;9.43;7.17;;;;;;;15.98;75.55;98871.09;5022463;28;20167;-81
2022/09/13 02:59:18;;;;;;;9.00;7.60;;;;;;;16.02;74.72;98869.41;5043240;28;20197;-80
2022/09/13 03:01:51;;;;;;;8.20;7.40;;;;;;;15.99;74.78;98861.75;5037159;28;20220;-80
2022/09/13 03:04:17;;;;;;;8.30;6.77;;;;;;;15.70;74.81;98838.34;5036469;28;20615;-80
2022/09/13 03:06:43;;;;;;;8.93;6.97;;;;;;;15.95;74.63;98865.94;5035167;28;20196;-79
2022/09/13 03:09:08;;;;;;;8.20;6.87;;;;;;;16.05;73.73;98869.47;5034103;28;20189;-80
2022/09/13 03:11:54;;;;;;;8.33;6.93;;;;;;;16.19;72.62;98873.06;5039188;28;20189;-80
2022/09/13 03:14:35;;;;;;;9.87;7.23;;;;;;;16.11;72.37;98872.09;5054237;28;20165;-80
2022/09/13 03:17:14;;;;;;;9.70;7.50;;;;;;;16.11;72.53;98872.09;5057866;28;20255;-81
2022/09/13 03:19:42;;;;;;;9.97;7.30;;;;;;;16.03;72.71;98877.13;5073745;28;20196;-81
2022/09/13 03:22:29;;;;;;;10.80;7.77;;;;;;;15.92;73.89;98879.53;5074541;28;20653;-81
2022/09/13 03:25:05;;;;;;;9.10;8.03;;;;;;;15.84;74.56;98880.25;5074321;28;20640;-81
2022/09/13 03:28:01;;;;;;;9.33;7.47;;;;;;;15.64;75.89;98879.09;5073674;28;20537;-81
2022/09/13 03:30:27;;;;;;;11.80;8.17;;;;;;;15.69;76.41;98880.88;5074763;28;20160;-80
2022/09/13 03:33:29;;;;;;;11.47;7.40;;;;;;;15.66;77.23;98888.47;5074841;28;20156;-81
2022/09/13 03:36:13;;;;;;;11.23;7.40;;;;;;;15.54;78.53;98882.34;5074518;28;20187;-81
2022/09/13 03:38:46;;;;;;;10.03;7.90;;;;;;;15.60;78.95;98888.38;5072642;28;20632;-80
2022/09/13 03:41:28;;;;;;;10.60;7.80;;;;;;;15.38;79.13;98861.66;5073336;28;20188;-79
2022/09/13 03:44:01;;;;;;;9.27;7.57;;;;;;;14.49;78.71;98707.25;5074069;28;20172;-79
2022/09/13 03:46:38;;;;;;;12.23;7.70;;;;;;;15.56;78.99;98894.28;5073986;28;20693;-80
2022/09/13 03:49:08;;;;;;;11.20;7.90;;;;;;;15.53;79.87;98899.34;5073648;28;20165;-80
2022/09/13 03:51:35;;;;;;;13.93;8.80;;;;;;;15.31;80.10;98858.97;5074602;28;20157;-80
2022/09/13 03:54:05;;;;;;;10.97;8.30;;;;;;;15.23;81.19;98875.84;5073863;28;20157;-80
2022/09/13 03:56:31;;;;;;;11.90;8.03;;;;;;;15.13;82.02;98863.78;5067722;28;20166;-80
2022/09/13 03:58:56;;;;;;;13.93;8.77;;;;;;;15.10;82.33;98853.53;5053896;28;20624;-80
2022/09/13 04:01:23;;;;;;;11.37;7.70;;;;;;;15.21;83.44;98891.13;5054294;28;20192;-81
2022/09/13 04:03:49;;;;;;;10.30;7.67;;;;;;;14.82;83.24;98829.25;5053670;28;20625;-80
2022/09/13 04:06:15;;;;;;;10.77;7.90;;;;;;;15.25;82.70;98889.47;5053130;28;20180;-80
2022/09/13 04:08:40;;;;;;;11.83;8.23;;;;;;;15.40;80.71;98889.75;5053445;28;20633;-80
2022/09/13 04:11:06;;;;;;;12.13;8.60;;;;;;;15.27;80.02;98886.13;5053774;28;20241;-80
2022/09/13 04:13:31;;;;;;;15.10;8.60;;;;;;;15.11;79.87;98866.31;5053276;28;20153;-81
2022/09/13 04:16:01;;;;;;;11.73;7.83;;;;;;;15.00;79.48;98831.25;5058521;28;20248;-80
2022/09/13 04:18:27;;;;;;;12.23;8.37;;;;;;;15.32;79.16;98884.53;5073158;28;20161;-80
2022/09/13 04:20:59;;;;;;;10.60;7.63;;;;;;;15.41;79.08;98891.44;5073442;28;20186;-81
2022/09/13 04:23:26;;;;;;;10.70;7.30;;;;;;;15.21;78.76;98858.00;5089153;28;20571;-83
2022/09/13 04:25:52;;;;;;;12.37;7.73;;;;;;;15.33;79.47;98900.66;5073788;28;20171;-79
2022/09/13 04:28:19;;;;;;;11.07;7.77;;;;;;;15.31;79.78;98904.88;5073353;28;20153;-80
2022/09/13 04:30:46;;;;;;;9.73;7.17;;;;;;;15.24;80.44;98903.09;5073200;28;20160;-80
2022/09/13 04:33:12;;;;;;;13.23;7.70;;;;;;;15.02;79.80;98835.56;5073229;28;20195;-79
2022/09/13 04:35:40;;;;;;;11.57;7.87;;;;;;;15.35;80.44;98906.69;5065818;28;20243;-79
2022/09/13 04:38:06;;;;;;;14.37;8.13;;;;;;;15.24;81.35;98887.78;5053100;28;20165;-79
2022/09/13 04:40:33;;;;;;;12.80;8.50;;;;;;;15.25;81.82;98904.78;5052519;28;20238;-80
2022/09/13 04:43:00;;;;;;;11.63;8.00;;;;;;;15.19;82.50;98899.59;5052754;28;20212;-79
2022/09/13 04:45:27;;;;;;;11.17;7.57;;;;;;;15.21;81.81;98887.72;5052891;28;20223;-79
2022/09/13 04:47:55;;;;;;;11.23;7.47;;;;;;;15.27;81.11;98915.88;5052847;28;20176;-79
2022/09/13 04:50:22;;;;;;;11.83;8.27;;;;;;;15.30;79.67;98872.56;5052946;28;20240;-79
2022/09/13 04:52:47;;;;;;;10.50;7.80;;;;;;;15.58;79.38;98917.25;5052553;28;20668;-78
2022/09/13 04:55:13;;;;;;;11.40;7.50;;;;;;;15.27;77.77;98831.72;5038219;28;20271;-78
2022/09/13 04:57:40;;;;;;;12.20;7.90;;;;;;;15.98;76.43;98919.59;5058770;28;20180;-79
2022/09/13 05:00:07;;;;;;;12.63;7.50;;;;;;;16.20;75.26;98919.06;5066230;28;20678;-79
2022/09/13 05:02:33;;;;;;;11.40;7.67;;;;;;;15.85;74.77;98870.03;5066552;28;20268;-78
2022/09/13 05:04:58;;;;;;;14.53;8.20;;;;;;;16.17;74.13;98907.94;5067589;28;20180;-79
2022/09/13 05:07:23;;;;;;;14.73;7.63;;;;;;;16.31;74.06;98916.66;5066199;28;20310;-78
2022/09/13 05:09:49;;;;;;;13.70;7.70;;;;;;;16.14;73.77;98877.25;5067011;28;20272;-78
2022/09/13 05:12:14;;;;;;;12.23;7.53;;;;;;;15.05;74.05;98686.91;5066811;28;20188;-78
2022/09/13 05:14:39;;;;;;;13.77;7.97;;;;;;;15.87;74.42;98816.47;5064961;28;20216;-79
2022/09/13 05:17:05;;;;;;;14.00;7.97;;;;;;;16.35;74.55;98892.84;5051494;28;20708;-78
2022/09/13 05:19:30;;;;;;;13.60;7.97;;;;;;;16.57;74.41;98910.19;5066333;28;20267;-78
2022/09/13 05:21:56;;;;;;;15.13;8.57;;;;;;;16.49;74.73;98896.44;5065870;28;20212;-79
2022/09/13 05:24:21;;;;;;;14.03;8.90;;;;;;;16.59;74.98;98908.50;5066267;28;20184;-78
2022/09/13 05:26:46;;;;;;;15.70;8.90;;;;;;;16.85;74.70;98931.81;5066924;28;20704;-78
2022/09/13 05:29:12;;;;;;;12.73;8.90;;;;;;;16.69;74.73;98910.34;5066494;28;20187;-79
2022/09/13 05:31:40;;;;;;;16.13;8.70;;;;;;;16.95;74.41;98934.50;5066377;28;20196;-80
2022/09/13 05:34:15;;;;;;;11.97;8.27;;;;;;;17.01;72.95;98926.88;5066367;28;20227;-80
2022/09/13 05:36:40;;;;;;;15.27;8.37;;;;;;;16.94;72.24;98896.13;5046040;28;20255;-79
2022/09/13 05:39:11;;;;;;;11.77;7.93;;;;;;;17.26;71.16;98910.09;5048318;28;20268;-79
2022/09/13 05:41:36;;;;;;;10.27;7.70;;;;;;;17.13;70.46;98876.69;5045856;28;20204;-79
2022/09/13 05:44:02;;;;;;;12.23;7.70;;;;;;;17.17;70.09;98878.47;5066041;28;20559;-82
2022/09/13 05:46:27;;;;;;;9.87;6.93;;;;;;;17.26;69.54;98884.50;5067166;28;20181;-80
2022/09/13 05:48:56;;;;;;;9.67;6.90;;;;;;;17.52;69.36;98892.41;5066574;28;20181;-80
2022/09/13 05:51:22;;;;;;;8.00;6.23;;;;;;;17.67;69.45;98906.19;5066465;28;20183;-81
2022/09/13 05:53:50;;;;;;;12.30;7.63;;;;;;;16.93;69.34;98746.97;5065785;28;20237;-80
2022/09/13 05:56:21;;;;;;;8.63;6.47;;;;;;;17.85;69.74;98905.47;5037811;28;20328;-79
2022/09/13 05:58:48;;;;;;;9.37;7.00;;;;;;;17.92;69.68;98916.59;5048122;28;20189;-81
2022/09/13 06:01:15;;;;;;;11.07;7.50;;;;;;;18.07;69.29;98907.34;5047055;28;20347;-81
2022/09/13 06:03:40;;;;;;;9.67;7.77;;;;;;;17.78;69.44;98883.22;5061141;28;20184;-80
2022/09/13 06:06:07;;;;;;;15.63;6.77;;;;;;;17.58;68.44;98826.75;5052808;28;20230;-81
2022/09/13 06:08:33;;;;;;;11.20;7.87;;;;;;;18.36;68.64;98920.28;5046291;28;20832;-82
2022/09/13 06:11:11;;;;;;;9.93;7.87;;;;;;;18.22;67.99;98915.09;5047802;28;20185;-80
2022/09/13 06:13:37;;;;;;;12.27;7.80;;;;;;;18.41;66.94;98910.03;5060025;28;20271;-82
2022/09/13 06:16:05;;;;;;;10.60;7.60;;;;;;;18.46;66.58;98877.63;5067950;28;20177;-80
2022/09/13 06:18:32;;;;;;;8.37;6.67;;;;;;;18.65;65.88;98911.03;5067801;28;20172;-80
2022/09/13 06:21:02;;;;;;;11.63;6.73;;;;;;;18.43;65.94;98887.88;5066572;28;20208;-80
2022/09/13 06:23:28;;;;;;;12.27;7.43;;;;;;;18.83;64.92;98907.69;5066207;28;20279;-81
2022/09/13 06:26:09;;;;;;;9.40;6.20;;;;;;;19.00;63.76;98908.59;5066878;28;20183;-80
2022/09/13 06:28:35;;;;;;;7.63;6.13;;;;;;;18.62;64.24;98874.28;5066074;28;20184;-80
2022/09/13 06:31:06;;;;;;;10.47;7.10;;;;;;;18.88;64.62;98894.88;5066174;28;20233;-80
2022/09/13 06:33:32;;;;;;;10.33;6.97;;;;;;;19.34;63.65;98927.44;5059554;28;20271;-80
2022/09/13 06:36:02;;;;;;;8.87;6.27;;;;;;;18.24;63.02;98772.44;5046050;28;20721;-80
2022/09/13 06:38:28;;;;;;;8.07;6.50;;;;;;;19.17;63.79;98927.41;5045778;28;20209;-80
2022/09/13 06:41:03;;;;;;;10.13;6.30;;;;;;;19.59;62.40;98918.94;5046287;28;20212;-80
2022/09/13 06:43:29;;;;;;;11.07;5.50;;;;;;;19.46;61.15;98927.50;5054107;28;20990;-80
2022/09/13 06:46:08;;;;;;;5.80;4.90;;;;;;;19.28;61.26;98912.91;5066326;28;20172;-80
2022/09/13 06:48:35;;;;;;;6.17;5.10;;;;;;;19.51;60.58;98936.06;5065059;28;20189;-80
2022/09/13 06:51:03;;;;;;;10.33;5.73;;;;;;;19.84;60.18;98912.94;5065729;28;20196;-79
2022/09/13 06:53:30;;;;;;;8.60;5.40;;;;;;;19.94;59.12;98937.75;5064625;28;20191;-80
2022/09/13 06:56:19;;;;;;;7.37;5.47;;;;;;;20.00;58.67;98942.03;5050458;28;20224;-80
2022/09/13 06:58:48;;;;;;;7.87;5.23;;;;;;;19.95;58.59;98930.91;5063085;28;20204;-80
2022/09/13 07:01:14;;;;;;;7.30;5.23;;;;;;;19.92;59.05;98926.63;5066074;28;20341;-81
2022/09/13 07:03:48;;;;;;;6.60;4.87;;;;;;;19.78;58.92;98927.50;5084882;28;20612;-80
2022/09/13 07:06:16;;;;;;;8.63;5.53;;;;;;;20.11;58.85;98926.63;5075093;28;20183;-80
2022/09/13 07:08:43;;;;;;;6.43;4.70;;;;;;;20.12;57.36;98918.88;5098179;28;20187;-80
2022/09/13 07:11:10;;;;;;;9.17;5.57;;;;;;;20.30;57.72;98938.59;5098251;28;20183;-79
2022/09/13 07:13:36;;;;;;;8.17;5.00;;;;;;;20.37;57.39;98941.16;5077709;28;20180;-80
2022/09/13 07:16:16;;;;;;;5.73;4.60;;;;;;;20.20;56.31;98906.88;5069698;28;20206;-79
2022/09/13 07:18:41;;;;;;;7.00;4.40;;;;;;;20.30;56.49;98912.91;5070707;28;20195;-82
2022/09/13 07:21:09;;;;;;;6.87;4.60;;;;;;;20.49;55.75;98932.53;5060789;28;20201;-79
2022/09/13 07:23:37;;;;;;;5.20;4.70;;;;;;;20.61;55.96;98914.47;5067644;28;21009;-80
2022/09/13 07:26:04;;;;;;;7.40;5.50;;;;;;;21.13;54.23;98948.56;5069025;28;20568;-80
2022/09/13 07:28:35;;;;;;;7.73;6.17;;;;;;;20.87;53.46;98897.22;5067839;28;20204;-80
2022/09/13 07:31:16;;;;;;;8.77;6.33;;;;;;;21.04;52.89;98928.00;5069172;28;20195;-81
2022/09/13 07:33:42;;;;;;;6.83;5.90;;;;;;;21.61;52.63;98955.97;5067851;28;20216;-81
2022/09/13 07:36:12;;;;;;;7.37;6.33;;;;;;;21.85;52.02;98956.63;5084497;28;20751;-81
2022/09/13 07:38:40;;;;;;;7.83;6.00;;;;;;;22.17;51.08;98962.38;5068404;28;20241;-80
2022/09/13 07:41:10;;;;;;;7.90;6.77;;;;;;;21.68;51.90;98908.66;5067970;28;20211;-80
2022/09/13 07:43:36;;;;;;;7.30;5.77;;;;;;;21.50;52.14;98950.03;5067911;28;20185;-80
2022/09/13 07:46:06;;;;;;;7.87;5.40;;;;;;;21.71;51.82;98956.75;5068674;28;20196;-80
2022/09/13 07:48:34;;;;;;;6.83;4.90;;;;;;;21.89;50.82;98940.31;5069018;28;20192;-80
2022/09/13 07:51:00;;;;;;;21.77;8.07;;;;;;;22.32;49.44;98921.81;5067078;28;20184;-80
2022/09/13 07:53:26;;;;;;;6.10;4.00;;;;;;;21.92;50.44;98951.44;5068706;28;20181;-80
2022/09/13 07:55:52;;;;;;;7.37;5.03;;;;;;;22.01;50.52;98958.22;5056568;28;20239;-80
2022/09/13 07:58:18;;;;;;;5.27;4.27;;;;;;;22.32;49.56;98951.91;5068117;28;20208;-80
2022/09/13 08:00:43;;;;;;;5.20;3.70;;;;;;;22.25;49.42;98947.66;5067218;28;20231;-80
2022/09/13 08:03:10;;;;;;;6.23;4.57;;;;;;;21.91;48.52;98900.75;5067965;28;20279;-80
2022/09/13 08:05:42;;;;;;;7.90;4.80;;;;;;;21.99;48.83;98895.53;5068427;28;20177;-81
2022/09/13 08:08:08;;;;;;;4.87;3.90;;;;;;;22.45;47.39;98953.47;5068392;28;20181;-81
2022/09/13 08:10:34;;;;;;;5.30;4.37;;;;;;;22.67;47.44;98926.59;5065877;28;20196;-79
2022/09/13 08:12:59;;;;;;;5.13;4.07;;;;;;;22.84;47.01;98937.56;5051584;28;20187;-82
2022/09/13 08:15:25;;;;;;;4.40;3.97;;;;;;;23.36;44.31;98936.81;5068117;28;20193;-81
2022/09/13 08:17:52;;;;;;;4.43;3.90;;;;;;;22.82;46.07;98923.84;5058415;28;20816;-81
2022/09/13 08:20:18;;;;;;;4.97;4.20;;;;;;;23.12;46.02;98904.47;5063140;28;20257;-81
2022/09/13 08:22:44;;;;;;;5.63;3.80;;;;;;;22.91;46.34;98941.75;5056904;28;20222;-82
2022/09/13 08:25:09;;;;;;;9.10;4.73;;;;;;;23.44;45.85;98915.19;5047465;28;21028;-81
2022/09/13 08:27:35;;;;;;;7.30;4.40;;;;;;;23.77;45.10;98933.63;5069065;28;20674;-82
2022/09/13 08:30:00;;;;;;;8.03;5.17;;;;;;;23.90;44.74;98935.09;5069551;28;20180;-82
2022/09/13 08:32:25;;;;;;;5.90;4.30;;;;;;;23.42;45.18;98909.22;5065619;28;20177;-82
2022/09/13 08:34:51;;;;;;;6.00;4.93;;;;;;;23.84;43.88;98936.06;5050146;28;20231;-83
2022/09/13 08:37:17;;;;;;;4.20;3.80;;;;;;;24.08;42.24;98935.66;5064697;28;20615;-81
2022/09/13 08:39:42;;;;;;;5.43;3.47;;;;;;;24.16;40.46;98904.50;5071489;28;20200;-84
2022/09/13 08:42:19;;;;;;;5.50;3.53;;;;;;;23.92;40.88;98908.38;5070038;28;20208;-83
2022/09/13 08:44:49;;;;;;;3.57;3.27;;;;;;;23.93;40.79;98941.09;5070199;28;20199;-83
2022/09/13 08:47:25;;;;;;;3.80;3.50;;;;;;;24.06;40.93;98945.16;5069897;28;20180;-83
2022/09/13 08:50:00;;;;;;;6.77;6.17;;;;;;;24.01;40.34;98824.56;5069319;28;20190;-83
2022/09/13 08:52:29;;;;;;;4.70;3.47;;;;;;;25.22;38.75;98957.56;5072792;28;20194;-83
2022/09/13 08:54:56;;;;;;;3.40;3.10;;;;;;;24.15;38.62;98809.66;5070886;28;20280;-83
2022/09/13 08:57:31;;;;;;;3.70;3.30;;;;;;;24.83;39.07;98949.81;5070337;28;20237;-83
2022/09/13 09:00:06;;;;;;;3.70;3.30;;;;;;;24.65;39.30;98944.06;5070654;28;20180;-83
2022/09/13 09:03:08;;;;;;;4.23;3.23;;;;;;;25.17;39.82;98946.44;5053360;28;20176;-84
2022/09/13 09:05:46;;;;;;;3.67;3.17;;;;;;;23.88;39.26;98790.34;5009030;28;20206;-83
2022/09/13 09:08:33;;;;;;;3.83;3.30;;;;;;;23.59;40.82;98928.75;5012459;28;20189;-83
2022/09/13 09:11:04;;;;;;;4.63;3.50;;;;;;;23.04;40.83;98815.94;5027090;28;20363;-83
2022/09/13 09:13:34;;;;;;;5.90;3.30;;;;;;;23.40;41.24;98929.03;5028734;28;20911;-82
2022/09/13 09:16:13;;;;;;;5.57;3.87;;;;;;;23.37;41.79;98928.22;5028171;28;20222;-83
2022/09/13 09:18:45;;;;;;;4.60;3.33;;;;;;;21.85;41.93;98741.00;5029423;28;20190;-83
2022/09/13 09:21:16;;;;;;;5.20;3.43;;;;;;;22.58;42.12;98833.78;5028099;28;20209;-83
2022/09/13 09:23:53;;;;;;;6.47;3.90;;;;;;;23.19;41.66;98913.81;5015124;28;20571;-83
2022/09/13 09:26:21;;;;;;;6.33;3.50;;;;;;;23.16;42.07;98913.88;5003135;28;20237;-84
2022/09/13 09:28:54;;;;;;;5.03;3.40;;;;;;;23.37;41.66;98918.78;5028173;28;20197;-83
2022/09/13 09:31:57;;;;;;;4.57;3.20;;;;;;;23.07;41.99;98928.66;5027713;28;20190;-82
2022/09/13 09:35:03;;;;;;;4.93;3.10;;;;;;;22.71;42.66;98920.53;5027895;28;20232;-82
2022/09/13 09:37:30;;;;;;;3.93;3.27;;;;;;;22.79;42.15;98877.41;5027808;28;20239;-82
2022/09/13 09:40:06;;;;;;;3.80;3.10;;;;;;;23.39;41.71;98931.66;5027621;28;20186;-82
2022/09/13 09:42:40;;;;;;;7.27;4.00;;;;;;;23.25;41.79;98899.97;5044818;28;20934;-82
2022/09/13 09:45:28;;;;;;;4.87;4.20;;;;;;;23.62;41.19;98901.16;5050000;28;20657;-82
2022/09/13 09:47:58;;;;;;;7.37;4.97;;;;;;;24.03;40.07;98942.63;5066403;28;20185;-82
2022/09/13 09:50:30;;;;;;;4.30;3.37;;;;;;;23.86;40.62;98929.16;5068845;28;20173;-83
2022/09/13 09:53:15;;;;;;;5.43;3.40;;;;;;;24.28;39.22;98934.47;5068324;28;20634;-82
2022/09/13 09:55:50;;;;;;;7.37;4.00;;;;;;;24.22;39.12;98935.44;5070320;28;20234;-82
2022/09/13 09:58:17;;;;;;;6.40;3.77;;;;;;;24.29;38.38;98920.63;5069945;28;20180;-82
2022/09/13 10:00:55;;;;;;;52.73;45.87;;;;;;;24.39;38.96;98937.72;5068852;28;20551;-81
2022/09/13 10:03:32;;;;;;;6.57;4.40;;;;;;;24.08;39.39;98883.06;5048943;28;20181;-82
2022/09/13 10:06:30;;;;;;;6.70;4.43;;;;;;;24.40;39.60;98936.81;5049263;28;20185;-83
2022/09/13 10:09:03;;;;;;;8.53;5.07;;;;;;;24.27;39.47;98932.75;5007223;28;20194;-83
2022/09/13 10:11:41;;;;;;;12.57;10.93;;;;;;;24.21;38.40;98919.94;5006240;28;20212;-83
2022/09/13 10:14:25;;;;;;;6.40;3.60;;;;;;;24.60;38.16;98930.38;5006641;28;20340;-83
2022/09/13 10:17:04;;;;;;;11.03;8.50;;;;;;;24.79;38.25;98932.59;5006630;28;20229;-82
2022/09/13 10:19:31;;;;;;;8.17;5.50;;;;;;;25.04;37.56;98931.22;5006256;28;20182;-81
2022/09/13 10:22:12;;;;;;;9.07;7.40;;;;;;;25.28;36.94;98935.84;5005892;28;20210;-81
2022/09/13 10:24:39;;;;;;;6.93;6.27;;;;;;;25.43;36.68;98914.75;4994612;28;20190;-81
2022/09/13 10:27:22;;;;;;;5.83;5.30;;;;;;;25.70;36.34;98910.66;5005694;28;20179;-81
2022/09/13 10:29:55;;;;;;;5.05;3.67;;;;;;;25.88;36.24;98909.34;5004923;28;20206;-81
2022/09/13 10:32:21;;;;;;;4.53;3.10;;;;;;;25.44;36.18;98921.63;5006044;28;20597;-82
2022/09/13 10:34:48;;;;;;;3.43;3.10;;;;;;;24.77;36.80;98913.63;5007885;28;20223;-81
2022/09/13 10:37:34;;;;;;;5.87;5.10;;;;;;;24.51;36.47;98870.16;5008957;28;20797;-82
2022/09/13 10:40:16;;;;;;;8.37;4.17;;;;;;;24.81;36.93;98904.94;5009447;28;20216;-82
2022/09/13 10:42:53;;;;;;;7.03;3.60;;;;;;;24.52;37.12;98858.94;5009360;28;20187;-82
2022/09/13 10:45:27;;;;;;;5.93;4.53;;;;;;;24.74;36.57;98887.81;5061253;28;20249;-82
2022/09/13 10:47:54;;;;;;;5.03;3.20;;;;;;;25.28;36.58;98881.41;5072048;28;20590;-82
2022/09/13 10:50:26;;;;;;;4.90;3.10;;;;;;;25.27;36.51;98897.88;5082557;28;20176;-82
2022/09/13 10:52:53;;;;;;;7.33;3.53;;;;;;;24.96;36.14;98843.31;5088857;28;20188;-81
2022/09/13 10:55:19;;;;;;;5.17;3.50;;;;;;;25.12;35.87;98891.28;5083185;28;20194;-82
2022/09/13 10:57:49;;;;;;;6.00;3.23;;;;;;;25.02;36.76;98865.63;5077983;28;20200;-81
2022/09/13 11:00:18;;;;;;;3.10;2.80;;;;;;;25.31;36.52;98875.31;5074998;28;20224;-81
2022/09/13 11:02:50;;;;;;;10.27;7.38;;;;;;;25.49;35.71;98893.88;5072553;28;20182;-82
2022/09/13 11:05:22;;;;;;;6.78;4.20;;;;;;;25.35;35.97;98884.72;5071406;28;20214;-82
2022/09/13 11:07:55;;;;;;;6.40;3.70;;;;;;;24.96;36.69;98870.94;5070971;28;20658;-82
2022/09/13 11:10:39;;;;;;;4.63;3.33;;;;;;;24.95;36.23;98770.81;5071437;28;20191;-82
2022/09/13 11:13:33;;;;;;;4.03;3.20;;;;;;;25.45;35.74;98875.81;5072622;28;20220;-82
2022/09/13 11:16:17;;;;;;;3.77;2.90;;;;;;;24.88;36.62;98878.03;5071774;28;20184;-81
2022/09/13 11:19:19;;;;;;;4.63;2.97;;;;;;;24.67;37.17;98874.13;5074904;28;20253;-81
2022/09/13 11:21:47;;;;;;;3.83;2.80;;;;;;;24.72;36.31;98867.16;5055983;28;20216;-81
2022/09/13 11:24:16;;;;;;;3.80;2.90;;;;;;;24.73;36.58;98873.16;5055905;28;20189;-81
2022/09/13 11:27:06;;;;;;;3.73;2.87;;;;;;;25.60;35.31;98857.34;5046447;28;20305;-81
2022/09/13 11:29:40;;;;;;;4.23;2.53;;;;;;;25.82;33.71;98852.44;5070034;28;20181;-81
2022/09/13 11:32:12;;;;;;;3.83;2.40;;;;;;;25.93;33.06;98860.81;5070091;28;20190;-81
2022/09/13 11:35:28;;;;;;;3.53;2.15;;;;;;;25.14;34.71;98819.56;5070499;28;20216;-81
2022/09/13 11:38:03;;;;;;;2.70;2.50;;;;;;;25.69;34.87;98862.28;5027726;28;20198;-81
2022/09/13 11:40:28;;;;;;;4.88;3.08;;;;;;;25.93;35.49;98869.41;5028369;28;20743;-81
2022/09/13 11:43:35;;;;;;;4.25;3.03;;;;;;;25.45;34.38;98795.47;5029092;28;20191;-81
2022/09/13 11:46:29;;;;;;;4.88;3.10;;;;;;;25.92;33.22;98859.94;5028506;28;20207;-82
2022/09/13 11:49:22;;;;;;;4.22;2.78;;;;;;;25.62;34.39;98858.16;4948498;28;20695;-81
2022/09/13 11:52:28;;;;;;;3.40;2.90;;;;;;;25.21;34.74;98821.13;4950785;29;20205;-81
2022/09/13 11:55:02;;;;;;;3.55;2.97;;;;;;;24.97;36.44;98832.06;4950837;29;20203;-82
2022/09/13 11:57:36;;;;;;;5.67;4.60;;;;;;;25.56;37.07;98853.13;4949292;29;20225;-82